Time;durP1;ratioP1;P1;durP2;ratioP2;P2;SDS_P1;SDS_P2;PMS_P1;PMS_P2;Temp;Humidity;BMP_temperature;BMP_pressure;BME280_temperature;BME280_humidity;BME280_pressure;Samples;Min_cycle;Max_cycle;Signal;HPM_P1;HPM_P2
2023/05/27 00:00:22;;;;;;;;;12.25;10.00;;;;;16.08;54.36;101462.47;5014334;28;48548;-69
2023/05/27 00:02:48;;;;;;;;;10.00;10.00;;;;;16.11;54.65;101472.03;5015964;28;45348;-69
2023/05/27 00:05:13;;;;;;;;;9.50;9.50;;;;;16.05;54.46;101468.75;5016301;28;45391;-71
2023/05/27 00:07:38;;;;;;;;;8.50;8.50;;;;;16.03;54.44;101475.09;5015940;28;45320;-69
2023/05/27 00:10:05;;;;;;;;;13.00;13.00;;;;;16.01;54.39;101472.50;5015515;28;46415;-71
2023/05/27 00:12:30;;;;;;;;;14.50;14.50;;;;;15.99;54.48;101462.91;5015824;28;45483;-67
2023/05/27 00:14:55;;;;;;;;;13.25;13.00;;;;;16.00;54.70;101468.13;5014596;28;45522;-71
2023/05/27 00:17:21;;;;;;;;;16.25;15.00;;;;;15.95;54.45;101479.91;5016082;28;45347;-69
2023/05/27 00:19:49;;;;;;;;;14.50;12.50;;;;;15.88;54.56;101466.06;5014228;28;47170;-67
2023/05/27 00:22:15;;;;;;;;;12.00;11.50;;;;;15.90;54.33;101475.69;5015781;28;45290;-66
2023/05/27 00:24:41;;;;;;;;;15.00;15.00;;;;;15.89;54.56;101465.97;5016040;28;45892;-66
2023/05/27 00:27:07;;;;;;;;;12.50;12.50;;;;;15.86;54.39;101468.75;5015837;28;45259;-65
2023/05/27 00:29:33;;;;;;;;;10.25;9.50;;;;;15.85;54.99;101469.69;5015577;28;45352;-67
2023/05/27 00:32:03;;;;;;;;;10.25;10.25;;;;;15.80;54.67;101466.41;5015451;28;45467;-66
2023/05/27 00:34:29;;;;;;;;;12.00;12.00;;;;;15.76;54.34;101460.41;5015525;28;45259;-67
2023/05/27 00:36:54;;;;;;;;;12.00;12.00;;;;;15.72;54.47;101453.53;5015887;28;45213;-70
2023/05/27 00:39:20;;;;;;;;;11.00;10.75;;;;;15.61;54.82;101431.97;5015515;28;45453;-66
2023/05/27 00:41:49;;;;;;;;;11.50;11.25;;;;;15.70;54.38;101449.22;5016035;28;45399;-67
2023/05/27 00:44:14;;;;;;;;;15.00;12.75;;;;;15.64;54.64;101445.06;5015990;28;45422;-66
2023/05/27 00:46:40;;;;;;;;;11.25;11.25;;;;;15.63;54.30;101448.66;5015799;28;45522;-67
2023/05/27 00:49:05;;;;;;;;;11.75;11.75;;;;;15.58;54.44;101437.41;5015414;28;45785;-71
2023/05/27 00:51:31;;;;;;;;;12.50;11.75;;;;;15.60;54.20;101443.50;5015545;28;45499;-71
2023/05/27 00:53:56;;;;;;;;;12.50;12.50;;;;;15.59;54.63;101442.63;5014829;28;45416;-69
2023/05/27 00:56:22;;;;;;;;;12.50;12.50;;;;;15.59;54.48;101442.63;5014203;28;45296;-67
2023/05/27 00:58:48;;;;;;;;;9.75;9.75;;;;;15.57;54.47;101447.16;5015820;28;45441;-72
2023/05/27 01:01:13;;;;;;;;;13.00;13.00;;;;;15.56;54.50;101439.28;5015346;28;45347;-70
2023/05/27 01:03:41;;;;;;;;;13.50;13.50;;;;;15.51;54.63;101438.63;5015589;28;45258;-70
2023/05/27 01:06:30;;;;;;;;;11.00;11.00;;;;;15.52;54.71;101446.50;5015546;28;45254;-67
2023/05/27 01:09:23;;;;;;;;;8.50;8.50;;;;;15.49;54.66;101438.69;5015031;28;46329;-72
2023/05/27 01:11:54;;;;;;;;;9.75;9.75;;;;;15.46;54.69;101438.84;5015402;28;45372;-69
2023/05/27 01:14:22;;;;;;;;;10.75;10.75;;;;;15.36;54.56;101429.59;5015120;28;45334;-67
2023/05/27 01:16:51;;;;;;;;;10.25;10.25;;;;;15.32;54.86;101435.03;5015639;28;45320;-70
2023/05/27 01:19:30;;;;;;;;;8.00;8.00;;;;;15.29;54.78;101429.88;5015229;28;45367;-70
2023/05/27 01:21:58;;;;;;;;;11.00;11.00;;;;;15.27;54.77;101436.19;5014570;28;45222;-71
2023/05/27 01:24:23;;;;;;;;;6.25;6.25;;;;;15.20;55.12;101435.63;5015110;28;45362;-71
2023/05/27 01:26:49;;;;;;;;;9.50;9.25;;;;;15.15;54.87;101429.66;5015642;28;45443;-70
2023/05/27 01:29:14;;;;;;;;;11.75;11.25;;;;;15.06;55.04;101416.84;5014748;28;46360;-69
2023/05/27 01:31:51;;;;;;;;;8.25;8.25;;;;;15.08;55.05;101430.88;5015223;28;45843;-70
2023/05/27 01:34:24;;;;;;;;;8.25;8.25;;;;;15.03;54.85;101429.31;5015156;28;45349;-69
2023/05/27 01:36:56;;;;;;;;;10.50;10.50;;;;;15.03;54.99;101437.25;5015287;28;45291;-69
2023/05/27 01:39:23;;;;;;;;;9.25;9.25;;;;;15.01;54.88;101433.81;5014793;28;45318;-69
2023/05/27 01:41:50;;;;;;;;;12.25;12.25;;;;;14.96;54.89;101427.00;5015139;28;45385;-70
2023/05/27 01:44:17;;;;;;;;;11.50;10.50;;;;;14.92;55.05;101430.72;5014819;28;45478;-70
2023/05/27 01:46:43;;;;;;;;;10.75;10.75;;;;;14.88;54.83;101425.53;5014822;28;45487;-73
2023/05/27 01:49:09;;;;;;;;;8.75;8.75;;;;;14.81;55.07;101423.22;5014577;28;45379;-69
2023/05/27 01:51:35;;;;;;;;;11.00;11.00;;;;;14.80;54.81;101426.81;5014690;28;45248;-69
2023/05/27 01:54:00;;;;;;;;;10.50;10.50;;;;;14.72;55.18;101421.88;5013226;28;45384;-69
2023/05/27 01:56:26;;;;;;;;;9.25;9.25;;;;;14.73;55.06;101416.47;5014812;28;45560;-70
2023/05/27 01:58:51;;;;;;;;;10.75;8.50;;;;;14.71;55.08;101426.28;5014364;28;46413;-70
2023/05/27 02:01:17;;;;;;;;;8.25;8.25;;;;;14.70;55.23;101419.28;5014598;28;45360;-71
2023/05/27 02:03:42;;;;;;;;;9.00;9.00;;;;;14.66;55.36;101425.59;5015100;28;45357;-70
2023/05/27 02:06:07;;;;;;;;;8.00;8.00;;;;;14.64;55.46;101427.44;5017581;28;55314;-66
2023/05/27 02:08:33;;;;;;;;;10.00;10.00;;;;;14.61;55.43;101424.94;5017652;28;45518;-70
2023/05/27 02:10:59;;;;;;;;;8.50;8.50;;;;;14.57;55.11;101433.94;5017513;28;45447;-69
2023/05/27 02:13:24;;;;;;;;;10.50;10.25;;;;;14.58;55.21;101419.78;5017291;28;45280;-70
2023/05/27 02:15:50;;;;;;;;;6.00;6.00;;;;;14.48;55.18;101421.09;5018543;28;45649;-70
2023/05/27 02:18:15;;;;;;;;;8.75;8.75;;;;;14.51;55.18;101423.63;5017789;28;45315;-70
2023/05/27 02:20:40;;;;;;;;;11.50;11.50;;;;;14.52;55.40;101420.03;5016984;28;61697;-73
2023/05/27 02:23:07;;;;;;;;;7.50;7.50;;;;;14.46;55.48;101422.03;5017799;28;45328;-69
2023/05/27 02:25:33;;;;;;;;;7.75;7.75;;;;;14.41;55.49;101421.38;5018145;28;45499;-70
2023/05/27 02:28:02;;;;;;;;;5.00;5.00;;;;;14.41;55.36;101428.47;5017410;28;45395;-71
2023/05/27 02:30:28;;;;;;;;;10.00;10.00;;;;;14.35;55.10;101419.00;5017445;28;45359;-70
2023/05/27 02:32:54;;;;;;;;;11.75;11.75;;;;;14.32;55.73;101422.66;5017416;28;45336;-70
2023/05/27 02:35:19;;;;;;;;;10.75;10.75;;;;;14.34;55.53;101425.22;5017249;28;56589;-71
2023/05/27 02:37:44;;;;;;;;;8.75;8.25;;;;;14.29;55.49;101412.16;5017511;28;46196;-71
2023/05/27 02:40:10;;;;;;;;;7.75;7.75;;;;;14.25;55.32;101409.72;5017238;28;45408;-71
2023/05/27 02:42:36;;;;;;;;;3.25;3.25;;;;;14.25;55.46;101418.50;5017394;28;45490;-71
2023/05/27 02:45:01;;;;;;;;;9.75;9.00;;;;;14.17;55.50;101408.25;5017756;28;45404;-71
2023/05/27 02:47:26;;;;;;;;;9.50;9.50;;;;;14.15;55.73;101409.25;5017205;28;45582;-70
2023/05/27 02:49:52;;;;;;;;;10.75;8.50;;;;;14.12;55.56;101412.00;5016199;28;51877;-72
2023/05/27 02:52:17;;;;;;;;;10.00;9.50;;;;;14.06;55.63;101405.22;5017772;28;45395;-71
2023/05/27 02:54:42;;;;;;;;;8.50;8.50;;;;;13.98;55.42;101392.28;5015840;28;45284;-69
2023/05/27 02:57:08;;;;;;;;;10.25;10.25;;;;;14.00;55.48;101405.47;5017103;28;45591;-67
2023/05/27 02:59:33;;;;;;;;;10.50;9.75;;;;;13.97;55.54;101408.25;5016912;28;45245;-69
2023/05/27 03:01:59;;;;;;;;;7.75;7.75;;;;;13.93;55.59;101404.00;5017220;28;45433;-69
2023/05/27 03:04:24;;;;;;;;;8.00;8.00;;;;;13.94;55.67;101408.38;5017774;28;45604;-69
2023/05/27 03:06:49;;;;;;;;;8.25;8.25;;;;;13.87;55.35;101397.16;5017093;28;49565;-69
2023/05/27 03:09:15;;;;;;;;;8.25;8.25;;;;;13.84;55.41;101403.47;5016835;28;56739;-69
2023/05/27 03:11:40;;;;;;;;;5.00;5.00;;;;;13.82;55.45;101401.78;5017262;28;45404;-69
2023/05/27 03:14:06;;;;;;;;;8.50;8.50;;;;;13.83;55.26;101403.50;5016843;28;49961;-69
2023/05/27 03:16:31;;;;;;;;;11.00;11.00;;;;;13.80;55.38;101400.97;5015709;28;58617;-69
2023/05/27 03:18:57;;;;;;;;;6.25;6.25;;;;;13.72;55.34;101399.50;5016924;28;45512;-69
2023/05/27 03:21:26;;;;;;;;;7.00;7.00;;;;;13.70;55.56;101388.13;5017260;28;45222;-69
2023/05/27 03:23:51;;;;;;;;;4.00;4.00;;;;;13.66;55.05;101394.47;5017552;28;45562;-69
2023/05/27 03:26:17;;;;;;;;;8.75;8.25;;;;;13.62;55.73;101394.66;5016597;28;46001;-68
2023/05/27 03:28:42;;;;;;;;;8.50;8.50;;;;;13.62;55.45;101397.28;5016427;28;51865;-69
2023/05/27 03:31:08;;;;;;;;;8.75;8.75;;;;;13.58;55.62;101388.63;5016260;28;51901;-69
2023/05/27 03:33:33;;;;;;;;;9.25;8.50;;;;;13.53;55.84;101388.81;5016686;28;45510;-70
2023/05/27 03:35:59;;;;;;;;;9.25;8.75;;;;;13.54;55.72;101397.59;5016450;28;45321;-70
2023/05/27 03:38:24;;;;;;;;;8.25;8.25;;;;;13.55;55.84;101397.53;5017045;28;45341;-69
2023/05/27 03:40:50;;;;;;;;;10.50;10.50;;;;;13.47;55.52;101388.19;5015268;28;45285;-69
2023/05/27 03:43:15;;;;;;;;;9.00;8.25;;;;;13.47;55.62;101394.34;5016741;28;45657;-71
2023/05/27 03:45:40;;;;;;;;;1.50;0.75;;;;;13.49;55.44;101391.66;5015007;28;48331;-69
2023/05/27 03:48:06;;;;;;;;;5.50;5.50;;;;;13.49;56.05;101397.78;5016840;28;45218;-71
2023/05/27 03:50:32;;;;;;;;;8.25;8.25;;;;;13.44;55.76;101394.47;5015211;28;45339;-68
2023/05/27 03:52:57;;;;;;;;;7.00;7.00;;;;;13.41;55.60;101392.78;5016647;28;45537;-69
2023/05/27 03:55:23;;;;;;;;;9.75;9.25;;;;;13.41;55.65;101389.25;5015956;28;65349;-69
2023/05/27 03:57:48;;;;;;;;;9.75;9.75;;;;;13.40;55.56;101396.34;5016188;28;45399;-70
2023/05/27 04:00:16;;;;;;;;;10.00;9.75;;;;;13.40;55.48;101401.63;5014719;28;45503;-69
2023/05/27 04:02:41;;;;;;;;;1.50;1.50;;;;;13.40;55.96;101398.09;5015322;28;45579;-69
2023/05/27 04:05:07;;;;;;;;;9.00;9.00;;;;;13.40;55.82;101395.47;5016012;28;45307;-69
2023/05/27 04:07:32;;;;;;;;;8.75;8.75;;;;;13.36;55.88;101396.50;5016053;28;45459;-69
2023/05/27 04:09:58;;;;;;;;;7.50;7.25;;;;;13.35;55.64;101397.44;5015182;28;45255;-70
2023/05/27 04:12:24;;;;;;;;;8.75;8.75;;;;;13.35;56.05;101398.31;5016341;28;45272;-69
2023/05/27 04:14:50;;;;;;;;;8.25;8.25;;;;;13.34;56.12;101401.00;5015795;28;45347;-68
2023/05/27 04:17:15;;;;;;;;;9.25;9.25;;;;;13.26;55.81;101391.56;5015933;28;45360;-67
2023/05/27 04:19:41;;;;;;;;;14.50;11.25;;;;;13.32;55.90;101402.84;5014493;28;45408;-70
2023/05/27 04:22:06;;;;;;;;;9.00;9.00;;;;;13.30;55.90;101411.69;5016065;28;45233;-68
2023/05/27 04:24:32;;;;;;;;;15.50;15.50;;;;;13.35;56.31;101408.00;5015396;28;53462;-69
2023/05/27 04:26:57;;;;;;;;;18.25;18.25;;;;;13.36;56.03;101404.44;5014950;28;56667;-68
2023/05/27 04:29:22;;;;;;;;;13.75;13.75;;;;;13.36;56.05;101405.31;5015333;28;45195;-68
2023/05/27 04:31:48;;;;;;;;;7.75;7.75;;;;;13.37;55.85;101400.88;5013790;28;54139;-69
2023/05/27 04:34:13;;;;;;;;;11.25;11.25;;;;;13.40;56.07;101406.91;5015514;28;45554;-67
2023/05/27 04:36:39;;;;;;;;;8.00;8.00;;;;;13.39;55.94;101407.84;5015406;28;45318;-67
2023/05/27 04:39:04;;;;;;;;;8.75;8.75;;;;;13.36;55.95;101393.88;5015674;28;45360;-66
2023/05/27 04:41:32;;;;;;;;;8.00;8.00;;;;;13.38;55.75;101394.66;5016104;28;45548;-68
2023/05/27 04:43:58;;;;;;;;;10.00;9.75;;;;;13.36;56.00;101399.16;5015570;28;45524;-69
2023/05/27 04:46:24;;;;;;;;;9.00;9.00;;;;;13.34;56.00;101403.63;5015325;28;45326;-67
2023/05/27 04:48:52;;;;;;;;;8.75;8.75;;;;;13.35;55.90;101402.72;5014183;28;45187;-68
2023/05/27 04:51:17;;;;;;;;;10.25;10.25;;;;;13.34;56.33;101406.28;5014082;28;45532;-68
2023/05/27 04:53:43;;;;;;;;;11.00;11.00;;;;;13.34;56.26;101398.34;5015049;28;45843;-69
2023/05/27 04:56:08;;;;;;;;;11.00;11.00;;;;;13.34;55.92;101393.94;5015226;28;45269;-69
2023/05/27 04:58:34;;;;;;;;;7.75;7.75;;;;;13.39;56.11;101393.75;5014124;28;45488;-69
2023/05/27 05:00:59;;;;;;;;;9.75;9.75;;;;;13.45;56.12;101404.09;5015704;28;45299;-70
2023/05/27 05:03:39;;;;;;;;;10.25;10.25;;;;;13.48;55.77;101392.56;5014804;28;46161;-69
2023/05/27 05:06:05;;;;;;;;;9.25;9.25;;;;;13.59;56.35;101391.19;5014982;28;45447;-70
2023/05/27 05:08:31;;;;;;;;;9.25;9.25;;;;;13.70;55.84;101396.06;5015284;28;45380;-68
2023/05/27 05:10:56;;;;;;;;;9.50;9.50;;;;;13.77;55.53;101391.38;5015488;28;45532;-69
2023/05/27 05:13:21;;;;;;;;;8.75;8.75;;;;;13.87;55.67;101394.53;5015077;28;46280;-69
2023/05/27 05:15:47;;;;;;;;;9.25;9.25;;;;;14.00;55.59;101401.03;5015054;28;45199;-72
2023/05/27 05:18:12;;;;;;;;;9.75;9.75;;;;;14.16;55.12;101406.53;5015235;28;45308;-71
2023/05/27 05:20:38;;;;;;;;;9.25;8.25;;;;;14.28;55.08;101405.16;5015408;28;45484;-70
2023/05/27 05:23:03;;;;;;;;;10.75;10.00;;;;;14.37;54.71;101403.91;5014724;28;46372;-68
2023/05/27 05:25:35;;;;;;;;;9.50;9.50;;;;;14.49;54.70;101399.88;5015176;28;45327;-70
2023/05/27 05:28:00;;;;;;;;;9.25;8.75;;;;;14.60;54.36;101407.34;5015275;28;45280;-70
2023/05/27 05:30:26;;;;;;;;;8.50;8.50;;;;;14.69;54.61;101416.69;5014589;28;45538;-68
2023/05/27 05:32:51;;;;;;;;;10.00;10.00;;;;;14.71;54.13;101404.25;5014395;28;46398;-70
2023/05/27 05:35:17;;;;;;;;;9.50;8.75;;;;;14.72;54.20;101404.16;5014219;28;45343;-68
2023/05/27 05:37:42;;;;;;;;;12.00;12.00;;;;;14.81;53.92;101404.69;5014565;28;45277;-70
2023/05/27 05:40:08;;;;;;;;;8.50;8.50;;;;;14.86;53.83;101400.91;5014325;28;45500;-69
2023/05/27 05:42:33;;;;;;;;;10.25;10.25;;;;;14.88;53.53;101400.88;5014851;28;45622;-69
2023/05/27 05:44:58;;;;;;;;;10.25;9.75;;;;;14.85;53.42;101391.25;5014824;28;45338;-68
2023/05/27 05:47:24;;;;;;;;;8.25;8.25;;;;;14.93;53.37;101403.28;5014443;28;45327;-69
2023/05/27 05:49:49;;;;;;;;;6.00;6.00;;;;;14.88;53.18;101409.66;5014908;28;45392;-70
2023/05/27 05:52:14;;;;;;;;;10.00;10.00;;;;;14.87;53.45;101402.63;5013872;28;46258;-71
2023/05/27 05:54:40;;;;;;;;;8.00;8.00;;;;;14.79;53.58;101398.59;5014100;28;45388;-69
2023/05/27 05:57:05;;;;;;;;;9.00;9.00;;;;;14.71;54.00;101396.31;5012957;28;45497;-69
2023/05/27 05:59:31;;;;;;;;;10.50;10.00;;;;;14.75;53.82;101408.50;5013216;28;45642;-69
2023/05/27 06:01:57;;;;;;;;;10.50;10.50;;;;;14.52;54.01;101378.56;5014095;28;45635;-70
2023/05/27 06:04:22;;;;;;;;;8.25;8.25;;;;;14.67;53.76;101406.13;5014105;28;45317;-69
2023/05/27 06:06:48;;;;;;;;;9.75;9.75;;;;;14.67;53.86;101408.78;5014070;28;45395;-70
2023/05/27 06:09:13;;;;;;;;;10.00;10.00;;;;;14.53;53.95;101379.41;5014260;28;45185;-70
2023/05/27 06:11:38;;;;;;;;;10.00;10.00;;;;;14.61;54.24;101409.94;5013461;28;54666;-69
2023/05/27 06:14:04;;;;;;;;;12.25;11.50;;;;;14.57;54.12;101405.69;5013867;28;52609;-70
2023/05/27 06:16:29;;;;;;;;;11.25;11.25;;;;;14.60;54.44;101405.56;5014077;28;45230;-70
2023/05/27 06:18:55;;;;;;;;;9.00;9.00;;;;;14.66;54.39;101409.72;5014191;28;45303;-72
2023/05/27 06:21:21;;;;;;;;;10.00;10.00;;;;;14.65;54.77;101402.69;5013820;28;45464;-71
2023/05/27 06:23:46;;;;;;;;;11.00;11.00;;;;;14.65;54.66;101410.63;5014012;28;45529;-71
2023/05/27 06:26:11;;;;;;;;;9.25;9.00;;;;;14.66;54.41;101414.16;5014104;28;45443;-69
2023/05/27 06:28:37;;;;;;;;;8.00;8.00;;;;;14.65;54.61;101408.00;5014176;28;45313;-69
2023/05/27 06:31:02;;;;;;;;;14.25;13.00;;;;;14.68;54.40;101409.66;5013990;28;45389;-69
2023/05/27 06:33:27;;;;;;;;;11.00;11.00;;;;;14.65;54.47;101410.63;5013830;28;45317;-69
2023/05/27 06:35:53;;;;;;;;;10.00;10.00;;;;;14.61;54.60;101406.41;5014011;28;45319;-70
2023/05/27 06:38:18;;;;;;;;;13.00;12.75;;;;;14.59;54.90;101392.38;5013991;28;45368;-70
2023/05/27 06:40:43;;;;;;;;;9.75;9.75;;;;;14.73;54.60;101413.00;5011649;28;60797;-70
2023/05/27 06:43:08;;;;;;;;;8.00;7.00;;;;;14.77;54.66;101403.09;5013896;28;45317;-69
2023/05/27 06:45:34;;;;;;;;;11.50;11.50;;;;;14.83;54.55;101410.78;5012724;28;45406;-68
2023/05/27 06:47:59;;;;;;;;;14.50;13.50;;;;;14.85;54.59;101406.31;5014033;28;45410;-70
2023/05/27 06:50:25;;;;;;;;;9.75;9.50;;;;;14.92;54.38;101401.56;5013792;28;45375;-70
2023/05/27 06:52:50;;;;;;;;;10.00;10.00;;;;;14.94;54.50;101397.06;5016282;28;64599;-69
2023/05/27 06:55:18;;;;;;;;;12.50;12.50;;;;;15.02;54.76;101401.09;5017059;28;45386;-69
2023/05/27 06:57:43;;;;;;;;;11.50;11.50;;;;;14.98;54.27;101377.44;5017343;28;45238;-68
2023/05/27 07:00:09;;;;;;;;;11.50;11.50;;;;;15.16;54.22;101395.13;5016193;28;45515;-67
2023/05/27 07:02:34;;;;;;;;;11.00;11.00;;;;;15.18;54.15;101397.72;5017059;28;45216;-69
2023/05/27 07:05:00;;;;;;;;;12.50;12.50;;;;;15.26;54.15;101398.22;5017163;28;45286;-69
2023/05/27 07:07:25;;;;;;;;;8.25;8.25;;;;;15.34;53.98;101401.38;5016734;28;48327;-69
2023/05/27 07:09:50;;;;;;;;;10.25;10.25;;;;;15.38;53.91;101398.56;5015274;28;45974;-68
2023/05/27 07:12:16;;;;;;;;;11.25;11.25;;;;;15.44;53.75;101400.94;5016323;28;60448;-68
2023/05/27 07:14:41;;;;;;;;;15.00;13.50;;;;;15.46;54.12;101391.13;5015342;28;45348;-71
2023/05/27 07:17:06;;;;;;;;;10.00;10.00;;;;;15.54;53.56;101383.66;5017139;28;45196;-70
2023/05/27 07:19:32;;;;;;;;;12.75;12.75;;;;;15.62;53.77;101389.44;5016414;28;45577;-71
2023/05/27 07:21:57;;;;;;;;;9.00;9.00;;;;;15.69;53.63;101390.00;5016749;28;45229;-69
2023/05/27 07:24:22;;;;;;;;;7.50;7.50;;;;;15.76;53.40;101380.81;5015121;28;45276;-70
2023/05/27 07:26:48;;;;;;;;;10.00;10.00;;;;;15.80;53.45;101375.38;5016804;28;45560;-71
2023/05/27 07:29:13;;;;;;;;;10.50;10.00;;;;;15.84;53.08;101376.94;5016064;28;54586;-70
2023/05/27 07:31:38;;;;;;;;;12.25;12.00;;;;;15.88;53.24;101374.06;5016727;28;45253;-69
2023/05/27 07:34:04;;;;;;;;;12.00;12.00;;;;;15.95;53.66;101368.47;5015165;28;45378;-68
2023/05/27 07:36:29;;;;;;;;;10.00;10.00;;;;;15.99;53.44;101354.97;5016604;28;45304;-66
2023/05/27 07:38:54;;;;;;;;;10.25;10.00;;;;;16.10;53.08;101353.56;5016307;28;45758;-71
2023/05/27 07:41:21;;;;;;;;;10.00;10.00;;;;;16.21;52.66;101359.16;5015595;28;59673;-70
2023/05/27 07:43:46;;;;;;;;;11.50;11.00;;;;;16.22;52.04;101352.91;5016357;28;45406;-68
2023/05/27 07:46:12;;;;;;;;;10.00;9.25;;;;;16.25;51.73;101360.72;5016314;28;45351;-69
2023/05/27 07:48:37;;;;;;;;;9.75;8.25;;;;;16.29;52.05;101353.47;5016570;28;45378;-71
2023/05/27 07:51:02;;;;;;;;;7.00;7.00;;;;;16.38;51.75;101358.31;5015809;28;46051;-69
2023/05/27 07:53:28;;;;;;;;;13.50;13.50;;;;;16.44;51.58;101359.78;5014757;28;45412;-68
2023/05/27 07:55:53;;;;;;;;;9.75;9.75;;;;;16.46;51.74;101361.41;5016486;28;45293;-70
2023/05/27 07:58:18;;;;;;;;;12.00;10.50;;;;;16.53;51.71;101366.41;5015487;28;47945;-71
2023/05/27 08:00:44;;;;;;;;;10.50;10.50;;;;;16.56;51.32;101359.13;5015378;28;49457;-68
2023/05/27 08:03:09;;;;;;;;;13.50;10.75;;;;;16.62;51.65;101358.81;5015636;28;54372;-70
2023/05/27 08:05:35;;;;;;;;;13.25;13.25;;;;;16.71;51.59;101360.09;5015923;28;45203;-69
2023/05/27 08:08:00;;;;;;;;;18.00;18.00;;;;;16.77;51.74;101361.59;5015612;28;46049;-77
2023/05/27 08:10:26;;;;;;;;;13.75;11.25;;;;;16.88;51.37;101363.63;5015830;28;45439;-71
2023/05/27 08:12:51;;;;;;;;;10.50;9.50;;;;;16.96;51.35;101358.75;5016174;28;45205;-72
2023/05/27 08:15:17;;;;;;;;;12.50;12.50;;;;;16.99;51.37;101355.13;5015821;28;45554;-68
2023/05/27 08:17:43;;;;;;;;;9.75;9.75;;;;;17.05;51.29;101350.34;5014431;28;48045;-68
2023/05/27 08:20:12;;;;;;;;;11.75;11.75;;;;;17.15;51.33;101349.84;5016103;28;45468;-67
2023/05/27 08:22:37;;;;;;;;;12.25;12.00;;;;;17.11;50.97;101335.00;5015936;28;45291;-70
2023/05/27 08:25:03;;;;;;;;;10.25;10.25;;;;;17.27;51.02;101350.94;5015895;28;45418;-71
2023/05/27 08:28:01;;;;;;;;;11.00;11.00;;;;;17.29;50.41;101351.69;5015605;28;46858;-69
2023/05/27 08:30:29;;;;;;;;;11.00;11.00;;;;;17.34;50.78;101344.31;5029693;28;45180;-70
2023/05/27 08:32:55;;;;;;;;;7.67;7.67;;;;;17.38;50.70;101340.53;5034141;28;45367;-70
2023/05/27 08:35:21;;;;;;;;;11.75;11.75;;;;;17.47;50.85;101339.16;5035439;28;45536;-70
2023/05/27 08:37:46;;;;;;;;;10.50;10.50;;;;;17.52;50.55;101335.31;5033413;28;46007;-68
2023/05/27 08:40:16;;;;;;;;;7.50;7.50;;;;;17.59;50.77;101337.63;5033305;28;45364;-72
2023/05/27 08:42:42;;;;;;;;;8.00;8.00;;;;;17.61;50.61;101333.91;5028101;28;45534;-72
2023/05/27 08:45:09;;;;;;;;;9.00;8.00;;;;;17.66;50.79;101318.53;5015430;28;45589;-73
2023/05/27 08:47:35;;;;;;;;;9.25;9.25;;;;;17.80;50.78;101328.38;5032112;28;45415;-75
2023/05/27 08:50:01;;;;;;;;;10.00;10.00;;;;;17.88;50.54;101324.41;5034833;28;45449;-76
2023/05/27 08:52:30;;;;;;;;;9.75;9.75;;;;;17.92;50.37;101316.13;5034374;28;45363;-70
2023/05/27 08:54:59;;;;;;;;;8.75;8.75;;;;;17.99;50.33;101321.97;5033277;28;45433;-73
2023/05/27 08:57:29;;;;;;;;;9.00;9.00;;;;;18.05;50.26;101313.63;5034696;28;45322;-80
2023/05/27 08:59:54;;;;;;;;;9.75;9.75;;;;;18.09;49.64;101317.81;5033908;28;45452;-76
2023/05/27 09:02:21;;;;;;;;;10.75;10.75;;;;;18.12;49.79;101316.78;5033315;28;45340;-76
2023/05/27 09:04:47;;;;;;;;;9.25;9.25;;;;;18.16;50.57;101305.00;5032818;28;45358;-77
2023/05/27 09:07:13;;;;;;;;;7.50;7.50;;;;;18.21;50.09;101302.94;5034758;28;45434;-75
2023/05/27 09:09:39;;;;;;;;;10.75;10.75;;;;;18.29;50.32;101298.94;5037824;28;45569;-79
2023/05/27 09:12:05;;;;;;;;;11.00;11.00;;;;;18.39;50.21;101311.56;5036348;28;45620;-80
2023/05/27 09:14:31;;;;;;;;;14.00;14.00;;;;;18.50;50.00;101308.25;5029181;28;45443;-78
2023/05/27 09:16:57;;;;;;;;;11.00;11.00;;;;;18.56;49.54;101312.34;5041028;28;45535;-86
2023/05/27 09:19:22;;;;;;;;;15.00;15.00;;;;;18.62;49.71;101297.78;5036101;28;45334;-73
2023/05/27 09:21:52;;;;;;;;;11.75;11.75;;;;;18.72;49.92;101296.25;5032802;28;45486;-76
2023/05/27 09:24:17;;;;;;;;;12.00;12.00;;;;;18.85;49.54;101301.66;5035030;28;45622;-77
2023/05/27 09:26:43;;;;;;;;;10.50;10.50;;;;;18.82;49.75;101280.53;5034840;28;45606;-82
2023/05/27 09:29:09;;;;;;;;;11.75;11.75;;;;;18.98;49.30;101286.63;5036388;28;45411;-77
2023/05/27 09:31:41;;;;;;;;;10.00;10.00;;;;;19.11;49.14;101294.69;5032742;28;45360;-79
2023/05/27 09:34:16;;;;;;;;;8.50;8.50;;;;;19.20;49.15;101287.88;5033746;28;45372;-68
2023/05/27 09:36:46;;;;;;;;;10.25;10.25;;;;;19.28;48.73;101284.72;5032230;28;47060;-67
2023/05/27 09:39:16;;;;;;;;;12.25;11.25;;;;;19.30;48.75;101282.81;5030088;28;45690;-66
2023/05/27 09:41:42;;;;;;;;;9.75;9.75;;;;;19.34;48.58;101281.66;5032573;28;45564;-70
2023/05/27 09:44:09;;;;;;;;;14.50;14.50;;;;;19.39;48.71;101279.53;5033871;28;46105;-73
2023/05/27 09:46:35;;;;;;;;;12.00;12.00;;;;;19.42;48.48;101266.00;5017884;28;47421;-69
2023/05/27 09:49:02;;;;;;;;;11.50;10.50;;;;;19.52;49.26;101270.72;5033935;28;45295;-76
2023/05/27 09:51:27;;;;;;;;;15.25;15.25;;;;;19.57;49.08;101263.25;5034119;28;45351;-72
2023/05/27 09:53:55;;;;;;;;;11.00;11.00;;;;;19.65;48.92;101265.41;5033234;28;45643;-72
2023/05/27 09:56:23;;;;;;;;;10.00;10.00;;;;;19.73;48.20;101267.53;5030083;28;46168;-67
2023/05/27 09:58:49;;;;;;;;;14.00;14.00;;;;;19.78;48.63;101260.94;5033192;28;45458;-68
2023/05/27 10:01:17;;;;;;;;;11.75;11.75;;;;;19.82;47.79;101258.91;5033927;28;45382;-68
2023/05/27 10:03:46;;;;;;;;;16.00;14.25;;;;;19.90;48.21;101261.94;5033607;28;45415;-70
2023/05/27 10:06:15;;;;;;;;;9.25;9.25;;;;;19.95;48.02;101259.78;5033712;28;45224;-69
2023/05/27 10:08:42;;;;;;;;;11.00;11.00;;;;;20.03;47.84;101255.72;5031506;28;46101;-70
2023/05/27 10:11:10;;;;;;;;;9.25;9.25;;;;;20.07;47.78;101243.88;5016577;28;45458;-70
2023/05/27 10:13:36;;;;;;;;;13.50;12.00;;;;;20.20;48.03;101246.56;5025846;28;45713;-69
2023/05/27 10:16:02;;;;;;;;;8.75;8.75;;;;;20.30;47.52;101250.28;5025417;28;45270;-72
2023/05/27 10:18:29;;;;;;;;;12.75;12.75;;;;;20.37;47.60;101246.19;5033215;28;45221;-68
2023/05/27 10:20:56;;;;;;;;;15.25;14.25;;;;;20.43;46.84;101242.25;5033808;28;45306;-75
2023/05/27 10:23:25;;;;;;;;;11.00;10.25;;;;;20.48;47.37;101240.09;5035342;28;45526;-77
2023/05/27 10:25:51;;;;;;;;;9.50;9.50;;;;;20.55;46.77;101232.47;5033656;28;46702;-72
2023/05/27 10:28:25;;;;;;;;;14.75;14.75;;;;;20.60;47.38;101246.38;5036674;28;45792;-70
2023/05/27 10:30:52;;;;;;;;;12.50;12.50;;;;;20.64;46.97;101233.66;5040988;28;45610;-72
2023/05/27 10:33:28;;;;;;;;;11.00;11.00;;;;;20.68;46.82;101222.63;5036158;28;45379;-70
2023/05/27 10:35:53;;;;;;;;;11.50;11.50;;;;;20.84;46.89;101234.91;5048776;28;47880;-70
2023/05/27 10:38:19;;;;;;;;;10.00;10.00;;;;;20.93;46.21;101239.56;5045199;28;46314;-75
2023/05/27 10:40:46;;;;;;;;;12.00;12.00;;;;;20.98;46.51;101233.88;5036734;28;45592;-71
2023/05/27 10:43:18;;;;;;;;;8.25;8.25;;;;;20.98;46.22;101228.53;5035696;28;45517;-80
2023/05/27 10:45:45;;;;;;;;;13.00;12.75;;;;;21.04;46.13;101229.91;5017680;28;46722;-68
2023/05/27 10:48:27;;;;;;;;;11.00;11.00;;;;;21.09;46.28;101239.28;5024007;28;45421;-66
2023/05/27 10:50:53;;;;;;;;;9.25;9.25;;;;;21.14;46.23;101231.75;5032122;28;45412;-70
2023/05/27 10:53:20;;;;;;;;;13.25;13.25;;;;;21.19;45.83;101212.69;5030407;28;45412;-75
2023/05/27 10:55:49;;;;;;;;;10.25;10.25;;;;;21.30;45.83;101202.03;5034220;28;45402;-70
2023/05/27 10:58:18;;;;;;;;;15.00;15.00;;;;;21.44;45.70;101205.47;5034543;28;45549;-71
2023/05/27 11:00:47;;;;;;;;;10.75;10.75;;;;;21.50;45.20;101205.00;5036204;28;45295;-77
2023/05/27 11:03:17;;;;;;;;;10.75;10.75;;;;;21.55;45.18;101202.00;5039128;28;45298;-77
2023/05/27 11:05:43;;;;;;;;;11.50;11.50;;;;;21.62;44.62;101200.53;5037319;28;46444;-71
2023/05/27 11:08:13;;;;;;;;;11.00;11.00;;;;;21.67;45.15;101193.03;5033949;28;45735;-71
2023/05/27 11:10:41;;;;;;;;;12.75;12.75;;;;;21.72;44.79;101193.53;5034591;28;45461;-70
2023/05/27 11:13:06;;;;;;;;;17.25;17.00;;;;;21.77;44.99;101184.28;5043755;28;45649;-72